EmailTwitter


Surface observations / France / LFBO (07630)

Regions: Quebec | Canada | USA | Europe | France | UK | Elsewhere
Station
Display
Info & Location for LFBO (07630) | Help decoding METAR

Weather Conditions observed on 2019/12/16 at 02:00 UTC at TOULOUSE/BLAGNAC, FR (LFBO)

Temperature: 9.0 Celsius.

Dewpoint: 8.0 Celsius.

Relative Humidity: 93%

Winds: North at 7 km/h or 4 knots.

Mean Sea level Pressure: 100.70 kilopascals.

Coded METAR:

LFBO 160200Z AUTO 01004KT CAVOK 09/08 Q1007 TEMPO BKN013 BECMG 13012KT=